createdAt,value
2019-01-03T00:01:00.858Z,4.60
2019-01-03T00:04:07.321Z,4.83
2019-01-03T00:06:54.341Z,3.70
2019-01-03T00:09:39.261Z,4.07
2019-01-03T00:12:35.792Z,4.40
2019-01-03T00:15:27.240Z,4.40
2019-01-03T00:18:14.306Z,4.30
2019-01-03T00:20:58.814Z,3.80
2019-01-03T00:23:45.632Z,4.20
2019-01-03T00:26:32.917Z,3.87
2019-01-03T00:29:33.394Z,4.07
2019-01-03T00:32:20.463Z,3.93
2019-01-03T00:35:14.914Z,3.63
2019-01-03T00:38:09.369Z,3.50
2019-01-03T00:40:56.017Z,3.80
2019-01-03T00:43:44.505Z,4.63
2019-01-03T00:46:22.470Z,3.67
2019-01-03T00:49:09.452Z,3.50
2019-01-03T00:51:51.740Z,3.43
2019-01-03T00:54:55.637Z,3.50
2019-01-03T00:57:43.778Z,3.97
2019-01-03T01:00:30.629Z,3.77
2019-01-03T01:03:18.785Z,3.33
2019-01-03T01:06:05.605Z,4.00
2019-01-03T01:08:52.669Z,3.60
2019-01-03T01:11:53.041Z,3.10
2019-01-03T01:14:59.624Z,3.23
2019-01-03T01:18:00.071Z,3.17
2019-01-03T01:20:54.130Z,3.10
2019-01-03T01:23:41.581Z,3.80
2019-01-03T01:26:29.081Z,4.87
2019-01-03T01:29:16.140Z,3.77
2019-01-03T01:32:15.541Z,3.47
2019-01-03T01:34:57.829Z,3.50
2019-01-03T01:37:44.682Z,3.73
2019-01-03T01:40:45.238Z,3.70
2019-01-03T01:43:32.126Z,3.97
2019-01-03T01:46:20.293Z,3.70
2019-01-03T01:49:12.969Z,4.07
2019-01-03T01:52:00.467Z,4.33
2019-01-03T01:55:00.973Z,3.47
2019-01-03T01:57:48.093Z,3.20
2019-01-03T02:00:42.419Z,3.77
2019-01-03T02:03:29.149Z,3.47
2019-01-03T02:06:35.854Z,3.63
2019-01-03T02:09:44.021Z,3.17
2019-01-03T02:12:29.033Z,3.53
2019-01-03T02:15:17.443Z,3.27
2019-01-03T02:18:01.070Z,3.80
2019-01-03T02:20:54.662Z,3.13
2019-01-03T02:23:40.826Z,3.57
2019-01-03T02:26:27.849Z,3.10
2019-01-03T02:29:16.241Z,3.10
2019-01-03T02:32:03.511Z,3.10
2019-01-03T02:35:01.337Z,3.27
2019-01-03T02:37:44.645Z,4.27
2019-01-03T02:40:36.094Z,4.50
2019-01-03T02:43:33.416Z,3.70
2019-01-03T02:46:40.140Z,4.37
2019-01-03T02:49:32.966Z,4.10
2019-01-03T02:52:27.084Z,4.20
2019-01-03T02:55:15.232Z,3.67
2019-01-03T02:58:10.249Z,3.53
2019-01-03T03:00:51.781Z,3.20
2019-01-03T03:03:29.394Z,4.20
2019-01-03T03:06:15.938Z,3.90
2019-01-03T03:09:01.761Z,3.73
2019-01-03T03:11:56.945Z,4.27
2019-01-03T03:14:41.671Z,3.97
2019-01-03T03:17:28.798Z,3.93
2019-01-03T03:20:14.168Z,3.97
2019-01-03T03:23:14.955Z,4.53
2019-01-03T03:25:56.702Z,5.17
2019-01-03T03:28:43.942Z,5.30
2019-01-03T03:31:31.075Z,5.27
2019-01-03T03:34:19.931Z,4.30
2019-01-03T03:37:10.945Z,4.33
2019-01-03T03:40:05.022Z,3.93
2019-01-03T03:43:08.878Z,4.20
2019-01-03T03:45:55.670Z,4.03
2019-01-03T03:48:39.935Z,4.37
2019-01-03T03:51:23.849Z,4.40
2019-01-03T03:54:20.933Z,5.20
2019-01-03T03:57:09.074Z,5.00
2019-01-03T04:00:03.494Z,5.83
2019-01-03T04:03:04.021Z,5.37
2019-01-03T04:06:10.369Z,5.30
2019-01-03T04:08:57.601Z,4.67
2019-01-03T04:11:42.277Z,4.17
2019-01-03T04:14:48.485Z,4.37
2019-01-03T04:17:35.769Z,4.63
2019-01-03T04:20:26.990Z,4.23
2019-01-03T04:23:06.023Z,3.97
2019-01-03T04:25:53.238Z,4.03
2019-01-03T04:28:50.673Z,3.47
2019-01-03T04:31:34.250Z,3.80
2019-01-03T04:34:21.306Z,3.37
2019-01-03T04:37:08.409Z,5.67
2019-01-03T04:40:05.878Z,3.97
2019-01-03T04:42:57.097Z,2.80
2019-01-03T04:45:45.246Z,2.93
2019-01-03T04:48:36.333Z,4.13
2019-01-03T04:51:36.640Z,4.40
2019-01-03T04:54:23.381Z,4.97
2019-01-03T04:57:10.581Z,5.37
2019-01-03T05:00:05.017Z,6.13
2019-01-03T05:03:08.489Z,5.20
2019-01-03T05:06:03.073Z,4.97
2019-01-03T05:08:41.025Z,6.07
2019-01-03T05:11:44.598Z,5.47
2019-01-03T05:14:34.833Z,5.30
2019-01-03T05:17:21.626Z,4.87
2019-01-03T05:20:08.801Z,4.13
2019-01-03T05:22:56.965Z,4.37
2019-01-03T05:25:57.863Z,5.00
2019-01-03T05:28:44.705Z,5.07
2019-01-03T05:31:42.323Z,4.77
2019-01-03T05:34:28.294Z,4.53
2019-01-03T05:37:16.786Z,4.90
2019-01-03T05:40:14.349Z,4.90
2019-01-03T05:43:08.778Z,5.83
2019-01-03T05:45:55.334Z,6.13
2019-01-03T05:48:42.077Z,4.70
2019-01-03T05:51:44.341Z,4.47
2019-01-03T05:54:29.393Z,4.90
2019-01-03T05:57:30.974Z,4.50
2019-01-03T06:00:17.726Z,4.00
2019-01-03T06:02:58.260Z,4.30
2019-01-03T06:05:39.215Z,4.20
2019-01-03T06:08:25.461Z,4.63
2019-01-03T06:11:16.626Z,4.30
2019-01-03T06:14:11.206Z,4.17
2019-01-03T06:17:08.385Z,4.73
2019-01-03T06:19:59.609Z,5.43
2019-01-03T06:23:02.993Z,6.80
2019-01-03T06:25:49.981Z,7.30
2019-01-03T06:28:50.051Z,7.50
2019-01-03T06:31:42.315Z,8.03
2019-01-03T06:34:29.009Z,7.30
2019-01-03T06:37:35.401Z,7.90
2019-01-03T06:40:29.561Z,7.77
2019-01-03T06:43:16.311Z,7.17
2019-01-03T06:46:04.497Z,6.97
2019-01-03T06:48:51.085Z,7.00
2019-01-03T06:51:48.697Z,7.03
2019-01-03T06:54:35.520Z,7.33
2019-01-03T06:57:18.122Z,8.53
2019-01-03T07:00:02.034Z,8.20
2019-01-03T07:02:49.161Z,7.70
2019-01-03T07:05:43.402Z,7.67
2019-01-03T07:08:49.499Z,6.60
2019-01-03T07:11:36.613Z,5.67
2019-01-03T07:14:30.788Z,7.23
2019-01-03T07:17:31.413Z,6.00
2019-01-03T07:20:29.272Z,6.63
2019-01-03T07:23:17.784Z,8.80
2019-01-03T07:26:12.084Z,12.00
2019-01-03T07:28:56.317Z,11.07
2019-01-03T07:31:43.101Z,7.90
2019-01-03T07:34:31.544Z,8.00
2019-01-03T07:37:31.745Z,7.90
2019-01-03T07:40:32.106Z,9.07
2019-01-03T07:43:20.261Z,8.20
2019-01-03T07:46:26.827Z,8.40
2019-01-03T07:49:13.973Z,9.07
2019-01-03T07:52:00.721Z,9.57
2019-01-03T07:54:57.537Z,9.40
2019-01-03T07:57:44.705Z,12.03
2019-01-03T08:00:36.593Z,11.47
2019-01-03T08:03:24.808Z,10.17
2019-01-03T08:06:16.069Z,13.73
2019-01-03T08:09:14.889Z,15.07
2019-01-03T08:12:18.407Z,13.80
2019-01-03T08:15:05.145Z,11.83
2019-01-03T08:17:53.329Z,13.20
2019-01-03T08:20:40.372Z,12.27
2019-01-03T08:23:27.781Z,14.53
2019-01-03T08:26:19.184Z,16.43
2019-01-03T08:29:07.389Z,15.60
2019-01-03T08:31:50.136Z,15.10
2019-01-03T08:34:38.301Z,13.50
2019-01-03T08:37:25.373Z,13.97
2019-01-03T08:40:25.925Z,10.77
2019-01-03T08:43:13.177Z,12.20
2019-01-03T08:46:11.497Z,13.77
2019-01-03T08:48:52.822Z,13.77
2019-01-03T08:51:40.088Z,13.37
2019-01-03T08:54:35.502Z,12.07
2019-01-03T08:57:29.441Z,11.60
2019-01-03T09:00:16.017Z,11.70
2019-01-03T09:03:16.301Z,14.30
2019-01-03T09:06:13.711Z,15.60
2019-01-03T09:09:00.620Z,11.90
2019-01-03T09:11:56.701Z,12.90
2019-01-03T09:14:53.901Z,14.60
2019-01-03T09:18:09.598Z,13.03
2019-01-03T09:20:59.147Z,14.80
2019-01-03T09:23:56.353Z,13.83
2019-01-03T09:26:43.073Z,13.57
2019-01-03T09:29:40.362Z,15.03
2019-01-03T09:32:40.478Z,17.47
2019-01-03T09:35:35.234Z,15.17
2019-01-03T09:38:41.799Z,12.07
2019-01-03T09:41:28.873Z,12.70
2019-01-03T09:44:20.937Z,15.43
2019-01-03T09:46:50.089Z,13.60
2019-01-03T09:49:19.302Z,13.50
2019-01-03T09:51:48.429Z,14.27
2019-01-03T09:54:17.541Z,16.40
2019-01-03T09:56:46.958Z,13.20
2019-01-03T09:59:16.141Z,13.30
2019-01-03T10:01:45.265Z,10.70
2019-01-03T10:04:14.435Z,9.93
2019-01-03T10:06:43.667Z,11.63
2019-01-03T10:09:13.149Z,11.33
2019-01-03T10:11:42.264Z,9.70
2019-01-03T10:14:11.386Z,10.70
2019-01-03T10:16:40.538Z,10.57
2019-01-03T10:19:10.049Z,14.27
2019-01-03T10:21:39.212Z,12.60
2019-01-03T10:24:08.494Z,11.03
2019-01-03T10:26:37.631Z,13.47
2019-01-03T10:29:07.144Z,14.30
2019-01-03T10:31:36.419Z,9.63
2019-01-03T10:34:05.543Z,9.30
2019-01-03T10:36:34.824Z,10.03
2019-01-03T10:39:05.685Z,11.40
2019-01-03T10:41:34.794Z,12.43
2019-01-03T10:44:03.977Z,9.80
2019-01-03T10:46:33.097Z,9.67
2019-01-03T10:49:02.314Z,9.67
2019-01-03T10:51:31.775Z,9.13
2019-01-03T10:54:00.881Z,10.50
2019-01-03T10:56:30.717Z,12.03
2019-01-03T10:59:00.266Z,12.53
2019-01-03T11:01:29.530Z,11.67
2019-01-03T11:03:58.709Z,13.63
2019-01-03T11:06:28.033Z,14.73
2019-01-03T11:08:57.369Z,13.63
2019-01-03T11:11:26.516Z,10.43
2019-01-03T11:13:55.715Z,12.17
2019-01-03T11:16:24.934Z,11.40
2019-01-03T11:18:54.108Z,9.37
2019-01-03T11:21:23.292Z,10.93
2019-01-03T11:23:52.433Z,11.83
2019-01-03T11:26:23.872Z,14.07
2019-01-03T11:28:53.093Z,13.47
2019-01-03T11:31:22.317Z,14.93
2019-01-03T11:33:51.437Z,13.93
2019-01-03T11:36:20.874Z,13.27
2019-01-03T11:38:49.983Z,12.57
2019-01-03T11:41:19.193Z,13.70
2019-01-03T11:43:48.393Z,13.37
2019-01-03T11:46:17.593Z,9.80
2019-01-03T11:48:46.773Z,11.93
2019-01-03T11:51:16.173Z,11.60
2019-01-03T11:53:45.339Z,11.37
2019-01-03T11:56:14.605Z,9.93
2019-01-03T11:58:44.113Z,10.33
2019-01-03T12:01:13.237Z,9.57
2019-01-03T12:03:42.369Z,9.43
2019-01-03T12:06:11.824Z,10.37
2019-01-03T12:08:41.047Z,10.47
2019-01-03T12:11:10.170Z,11.73
2019-01-03T12:13:39.742Z,11.87
2019-01-03T12:16:09.097Z,10.90
2019-01-03T12:18:38.400Z,9.70
2019-01-03T12:21:07.617Z,10.27
2019-01-03T12:23:36.723Z,7.73
2019-01-03T12:26:05.842Z,7.93
2019-01-03T12:28:35.144Z,7.00
2019-01-03T12:31:04.624Z,8.53
2019-01-03T12:33:33.736Z,14.93
2019-01-03T12:36:02.910Z,12.23
2019-01-03T12:38:32.133Z,13.90
2019-01-03T12:41:01.258Z,9.77
2019-01-03T12:43:30.432Z,10.80
2019-01-03T12:45:59.537Z,12.43
2019-01-03T12:48:28.733Z,11.03
2019-01-03T12:50:57.882Z,11.03
2019-01-03T12:53:27.003Z,10.67
2019-01-03T12:55:56.190Z,10.47
2019-01-03T12:58:25.341Z,11.03
2019-01-03T13:00:54.453Z,10.43
2019-01-03T13:03:23.705Z,10.30
2019-01-03T13:05:52.950Z,17.20
2019-01-03T13:08:22.085Z,16.27
2019-01-03T13:10:51.705Z,16.53
2019-01-03T13:13:20.827Z,12.67
2019-01-03T13:15:50.125Z,15.10
2019-01-03T13:18:19.321Z,13.60
2019-01-03T13:20:48.479Z,9.87
2019-01-03T13:23:17.871Z,11.47
2019-01-03T13:25:47.121Z,9.33
2019-01-03T13:28:16.389Z,9.83
2019-01-03T13:30:45.531Z,8.73
2019-01-03T13:33:14.867Z,10.50
2019-01-03T13:35:44.344Z,11.70
2019-01-03T13:38:13.662Z,10.63
2019-01-03T13:40:42.782Z,12.20
2019-01-03T13:43:11.914Z,10.47
2019-01-03T13:45:41.041Z,9.80
2019-01-03T13:48:10.246Z,10.17
2019-01-03T13:50:39.441Z,10.23
2019-01-03T13:53:08.621Z,10.87
2019-01-03T13:55:37.768Z,10.63
2019-01-03T13:58:06.880Z,14.77
2019-01-03T14:00:36.002Z,15.73
2019-01-03T14:03:05.589Z,14.00
2019-01-03T14:05:34.850Z,15.70
2019-01-03T14:08:04.033Z,14.07
2019-01-03T14:10:33.676Z,13.67
2019-01-03T14:13:02.867Z,15.33
2019-01-03T14:15:31.982Z,21.20
2019-01-03T14:18:01.500Z,21.73
2019-01-03T14:20:30.702Z,17.10
2019-01-03T14:22:59.821Z,16.37
2019-01-03T14:25:28.949Z,18.47
2019-01-03T14:27:58.175Z,18.63
2019-01-03T14:30:27.315Z,17.03
2019-01-03T14:32:56.427Z,14.80
2019-01-03T14:35:25.940Z,18.20
2019-01-03T14:37:55.059Z,14.40
2019-01-03T14:40:24.181Z,13.73
2019-01-03T14:42:53.370Z,19.67
2019-01-03T14:45:22.570Z,18.93
2019-01-03T14:47:52.013Z,15.30
2019-01-03T14:50:21.139Z,15.20
2019-01-03T14:52:50.250Z,19.73
2019-01-03T14:55:19.774Z,17.57
2019-01-03T14:57:48.893Z,18.43
2019-01-03T15:00:18.189Z,18.53
2019-01-03T15:02:47.633Z,17.33
2019-01-03T15:05:16.752Z,16.13
2019-01-03T15:07:45.864Z,14.40
2019-01-03T15:10:15.004Z,14.17
2019-01-03T15:12:44.227Z,14.80
2019-01-03T15:15:13.859Z,15.90
2019-01-03T15:17:42.989Z,17.77
2019-01-03T15:20:12.571Z,22.97
2019-01-03T15:22:41.682Z,18.20
2019-01-03T15:25:10.849Z,18.10
2019-01-03T15:27:39.980Z,17.00
2019-01-03T15:30:10.922Z,18.10
2019-01-03T15:32:40.423Z,16.13
2019-01-03T15:35:09.818Z,15.13
2019-01-03T15:37:38.998Z,22.53
2019-01-03T15:40:08.437Z,24.37
2019-01-03T15:42:37.573Z,21.57
2019-01-03T15:45:07.849Z,18.20
2019-01-03T15:47:37.006Z,25.63
2019-01-03T15:50:06.954Z,14.70
2019-01-03T15:52:36.073Z,22.47
2019-01-03T15:55:05.481Z,25.53
2019-01-03T15:57:34.643Z,24.43
2019-01-03T16:00:04.195Z,21.97
2019-01-03T16:02:33.511Z,19.60
2019-01-03T16:05:02.661Z,15.73
2019-01-03T16:07:32.611Z,21.27
2019-01-03T16:10:01.737Z,17.57
2019-01-03T16:12:30.912Z,21.07
2019-01-03T16:15:00.197Z,18.27
2019-01-03T16:17:29.392Z,14.40
2019-01-03T16:19:58.845Z,11.27
2019-01-03T16:22:27.965Z,12.00
2019-01-03T16:24:57.082Z,13.23
2019-01-03T16:27:26.557Z,11.47
2019-01-03T16:29:55.665Z,10.17
2019-01-03T16:32:24.858Z,11.03
2019-01-03T16:34:54.369Z,15.10
2019-01-03T16:37:23.479Z,11.67
2019-01-03T16:39:52.595Z,12.10
2019-01-03T16:42:21.758Z,12.20
2019-01-03T16:44:50.877Z,14.23
2019-01-03T16:47:20.062Z,13.30
2019-01-03T16:49:49.185Z,13.37
2019-01-03T16:52:18.332Z,15.87
2019-01-03T16:54:47.456Z,17.17
2019-01-03T16:57:16.578Z,23.10
2019-01-03T16:59:46.097Z,24.20
2019-01-03T17:02:15.223Z,17.13
2019-01-03T17:04:44.361Z,19.37
2019-01-03T17:07:13.504Z,22.67
2019-01-03T17:09:42.630Z,18.47
2019-01-03T17:12:11.753Z,19.87
2019-01-03T17:14:40.888Z,19.83
2019-01-03T17:17:10.105Z,21.00
2019-01-03T17:19:39.241Z,18.07
2019-01-03T17:22:08.397Z,23.73
2019-01-03T17:24:37.560Z,21.23
2019-01-03T17:27:06.718Z,26.23
2019-01-03T17:29:35.836Z,24.10
2019-01-03T17:32:05.037Z,21.00
2019-01-03T17:34:34.178Z,21.27
2019-01-03T17:37:03.346Z,17.93
2019-01-03T17:39:32.521Z,23.93
2019-01-03T17:42:01.636Z,17.77
2019-01-03T17:44:30.762Z,18.87
2019-01-03T17:46:59.885Z,16.17
2019-01-03T17:49:29.025Z,17.63
2019-01-03T17:51:58.208Z,17.20
2019-01-03T17:54:27.329Z,15.70
2019-01-03T17:56:56.439Z,19.37
2019-01-03T17:59:25.918Z,19.77
2019-01-03T18:01:55.109Z,18.23
2019-01-03T18:04:24.229Z,17.13
2019-01-03T18:06:53.360Z,15.70
2019-01-03T18:09:22.833Z,15.03
2019-01-03T18:11:51.954Z,16.83
2019-01-03T18:14:21.070Z,20.30
2019-01-03T18:16:50.545Z,18.40
2019-01-03T18:19:19.670Z,18.23
2019-01-03T18:21:48.792Z,19.97
2019-01-03T18:24:17.945Z,19.90
2019-01-03T18:26:47.269Z,22.93
2019-01-03T18:29:16.384Z,21.83
2019-01-03T18:31:45.780Z,22.27
2019-01-03T18:34:14.890Z,21.90
2019-01-03T18:36:44.009Z,21.03
2019-01-03T18:39:13.153Z,21.57
2019-01-03T18:41:42.301Z,23.13
2019-01-03T18:44:13.045Z,22.57
2019-01-03T18:46:42.237Z,22.80
2019-01-03T18:49:11.713Z,24.40
2019-01-03T18:51:40.844Z,24.43
2019-01-03T18:54:10.051Z,22.30
2019-01-03T18:56:39.180Z,21.47
2019-01-03T18:59:08.613Z,22.53
2019-01-03T19:01:37.737Z,22.17
2019-01-03T19:04:06.855Z,24.73
2019-01-03T19:06:36.288Z,23.20
2019-01-03T19:09:07.047Z,20.43
2019-01-03T19:11:36.225Z,20.97
2019-01-03T19:14:05.585Z,22.73
2019-01-03T19:16:34.711Z,25.73
2019-01-03T19:19:03.846Z,21.20
2019-01-03T19:21:33.049Z,21.87
2019-01-03T19:24:02.214Z,15.77
2019-01-03T19:26:31.344Z,21.37
2019-01-03T19:29:00.560Z,15.77
2019-01-03T19:31:29.677Z,16.20
2019-01-03T19:33:58.914Z,13.07
2019-01-03T19:36:28.078Z,12.63
2019-01-03T19:38:57.326Z,14.93
2019-01-03T19:41:26.461Z,15.93
2019-01-03T19:43:55.609Z,14.20
2019-01-03T19:46:24.818Z,13.63
2019-01-03T19:48:54.310Z,16.30
2019-01-03T19:51:23.819Z,15.97
2019-01-03T19:53:52.938Z,18.33
2019-01-03T19:56:22.057Z,16.60
2019-01-03T19:58:51.180Z,19.70
2019-01-03T20:01:20.305Z,21.00
2019-01-03T20:03:49.727Z,20.80
2019-01-03T20:06:18.874Z,23.00
2019-01-03T20:08:47.994Z,23.23
2019-01-03T20:11:17.137Z,22.37
2019-01-03T20:13:46.630Z,22.43
2019-01-03T20:16:15.826Z,20.57
2019-01-03T20:18:44.934Z,21.17
2019-01-03T20:21:14.085Z,20.93
2019-01-03T20:23:43.226Z,19.57
2019-01-03T20:26:12.346Z,21.80
2019-01-03T20:28:41.803Z,22.13
2019-01-03T20:31:10.914Z,21.37
2019-01-03T20:33:40.060Z,20.77
2019-01-03T20:36:09.545Z,21.03
2019-01-03T20:38:38.728Z,19.63
2019-01-03T20:41:07.977Z,18.87
2019-01-03T20:43:39.343Z,19.03
2019-01-03T20:46:08.124Z,19.17
2019-01-03T20:48:37.255Z,19.40
2019-01-03T20:51:06.384Z,17.67
2019-01-03T20:53:35.532Z,18.20
2019-01-03T20:56:04.749Z,20.30
2019-01-03T20:58:33.957Z,21.67
2019-01-03T21:01:03.089Z,19.23
2019-01-03T21:03:32.237Z,20.00
2019-01-03T21:06:01.361Z,17.83
2019-01-03T21:08:30.530Z,18.93
2019-01-03T21:10:59.709Z,19.00
2019-01-03T21:13:28.829Z,18.53
2019-01-03T21:15:57.957Z,17.53
2019-01-03T21:18:27.412Z,19.20
2019-01-03T21:20:56.533Z,17.80
2019-01-03T21:23:25.653Z,16.63
2019-01-03T21:25:54.877Z,15.50
2019-01-03T21:28:24.050Z,12.70
2019-01-03T21:30:53.173Z,14.70
2019-01-03T21:33:22.294Z,13.50
2019-01-03T21:35:51.456Z,12.43
2019-01-03T21:38:20.568Z,11.17
2019-01-03T21:40:49.697Z,10.70
2019-01-03T21:43:18.914Z,10.80
2019-01-03T21:45:48.182Z,10.77
2019-01-03T21:48:17.461Z,10.23
2019-01-03T21:50:46.974Z,8.53
2019-01-03T21:53:16.150Z,10.43
2019-01-03T21:55:45.269Z,9.70
2019-01-03T21:58:14.407Z,10.00
2019-01-03T22:00:43.517Z,10.20
2019-01-03T22:03:12.949Z,9.60
2019-01-03T22:05:42.084Z,9.73
2019-01-03T22:08:11.212Z,10.27
2019-01-03T22:10:40.669Z,9.50
2019-01-03T22:13:09.796Z,11.40
2019-01-03T22:15:38.909Z,12.07
2019-01-03T22:18:08.463Z,11.87
2019-01-03T22:20:37.589Z,11.60
2019-01-03T22:23:06.726Z,9.40
2019-01-03T22:25:35.859Z,9.17
2019-01-03T22:28:04.994Z,9.60
2019-01-03T22:30:34.137Z,8.83
2019-01-03T22:33:03.282Z,8.13
2019-01-03T22:35:32.569Z,8.40
2019-01-03T22:38:01.672Z,8.63
2019-01-03T22:40:30.797Z,8.13
2019-01-03T22:43:00.204Z,9.67
2019-01-03T22:45:29.347Z,8.90
2019-01-03T22:47:58.457Z,9.53
2019-01-03T22:50:27.621Z,8.93
2019-01-03T22:52:56.775Z,9.20
2019-01-03T22:55:25.921Z,8.20
2019-01-03T22:57:55.342Z,9.50
2019-01-03T23:00:32.428Z,10.13
2019-01-03T23:03:01.740Z,9.37
2019-01-03T23:05:30.937Z,11.03
2019-01-03T23:08:00.063Z,9.73
2019-01-03T23:10:29.192Z,8.70
2019-01-03T23:12:58.330Z,10.30
2019-01-03T23:15:27.481Z,10.60
2019-01-03T23:17:56.597Z,10.70
2019-01-03T23:20:26.089Z,9.23
2019-01-03T23:22:55.356Z,9.13
2019-01-03T23:25:24.506Z,8.47
2019-01-03T23:27:53.662Z,8.67
2019-01-03T23:30:22.781Z,8.40
2019-01-03T23:32:51.890Z,8.67
2019-01-03T23:35:21.336Z,8.53
2019-01-03T23:37:50.489Z,8.97
2019-01-03T23:40:19.622Z,7.93
2019-01-03T23:42:48.806Z,8.57
2019-01-03T23:45:20.032Z,7.97
2019-01-03T23:47:50.349Z,8.43
2019-01-03T23:50:22.033Z,8.33
2019-01-03T23:52:51.153Z,7.43
2019-01-03T23:55:21.915Z,8.77
2019-01-03T23:57:51.077Z,8.27
